sensor_id;sensor_type;location;lat;lon;timestamp;pressure;altitude;pressure_sealevel;temperature;humidity
56400;BME280;42298;53.638;9.876;2023-05-03T00:00:05;102621.56;;;6.86;60.03
56400;BME280;42298;53.638;9.876;2023-05-03T00:02:33;102618.72;;;6.81;60.80
56400;BME280;42298;53.638;9.876;2023-05-03T00:04:59;102603.00;;;6.65;61.04
56400;BME280;42298;53.638;9.876;2023-05-03T00:07:25;102613.84;;;6.60;61.61
56400;BME280;42298;53.638;9.876;2023-05-03T00:09:50;102614.69;;;6.61;61.12
56400;BME280;42298;53.638;9.876;2023-05-03T00:12:15;102616.34;;;6.62;61.29
56400;BME280;42298;53.638;9.876;2023-05-03T00:14:41;102613.59;;;6.62;61.26
56400;BME280;42298;53.638;9.876;2023-05-03T00:17:06;102611.94;;;6.61;60.68
56400;BME280;42298;53.638;9.876;2023-05-03T00:19:31;102618.25;;;6.61;60.98
56400;BME280;42298;53.638;9.876;2023-05-03T00:21:59;102606.81;;;6.53;60.89
56400;BME280;42298;53.638;9.876;2023-05-03T00:24:26;102608.38;;;6.49;60.67
56400;BME280;42298;53.638;9.876;2023-05-03T00:26:51;102602.19;;;6.42;63.39
56400;BME280;42298;53.638;9.876;2023-05-03T00:29:16;102615.25;;;6.40;63.29
56400;BME280;42298;53.638;9.876;2023-05-03T00:31:45;102604.66;;;6.32;62.58
56400;BME280;42298;53.638;9.876;2023-05-03T00:34:10;102619.66;;;6.29;62.62
56400;BME280;42298;53.638;9.876;2023-05-03T00:36:35;102609.41;;;6.25;62.47
56400;BME280;42298;53.638;9.876;2023-05-03T00:39:01;102603.34;;;6.23;62.51
56400;BME280;42298;53.638;9.876;2023-05-03T00:41:26;102618.09;;;6.22;64.43
56400;BME280;42298;53.638;9.876;2023-05-03T00:43:51;102607.63;;;6.19;62.72
56400;BME280;42298;53.638;9.876;2023-05-03T00:46:17;102602.03;;;6.14;62.19
56400;BME280;42298;53.638;9.876;2023-05-03T00:48:44;102618.22;;;6.27;61.62
56400;BME280;42298;53.638;9.876;2023-05-03T00:51:12;102624.66;;;6.32;61.43
56400;BME280;42298;53.638;9.876;2023-05-03T00:53:38;102610.34;;;6.30;61.48
56400;BME280;42298;53.638;9.876;2023-05-03T00:56:04;102603.22;;;6.29;61.22
56400;BME280;42298;53.638;9.876;2023-05-03T00:58:31;102615.38;;;6.33;60.89
56400;BME280;42298;53.638;9.876;2023-05-03T01:00:57;102605.72;;;6.31;61.07
56400;BME280;42298;53.638;9.876;2023-05-03T01:03:23;102600.38;;;6.24;62.03
56400;BME280;42298;53.638;9.876;2023-05-03T01:06:10;102601.31;;;6.18;62.14
56400;BME280;42298;53.638;9.876;2023-05-03T01:08:43;102611.91;;;6.15;61.89
56400;BME280;42298;53.638;9.876;2023-05-03T01:11:24;102623.69;;;6.15;62.17
56400;BME280;42298;53.638;9.876;2023-05-03T01:13:55;102605.47;;;6.09;61.53
56400;BME280;42298;53.638;9.876;2023-05-03T01:16:30;102616.06;;;6.17;61.37
56400;BME280;42298;53.638;9.876;2023-05-03T01:18:59;102617.47;;;6.20;61.27
56400;BME280;42298;53.638;9.876;2023-05-03T01:21:27;102612.00;;;6.20;61.47
56400;BME280;42298;53.638;9.876;2023-05-03T01:26:31;102622.72;;;6.21;62.01
56400;BME280;42298;53.638;9.876;2023-05-03T01:28:58;102619.75;;;6.23;62.36
56400;BME280;42298;53.638;9.876;2023-05-03T01:31:50;102632.75;;;6.39;62.37
56400;BME280;42298;53.638;9.876;2023-05-03T01:34:28;102630.75;;;6.46;62.28
56400;BME280;42298;53.638;9.876;2023-05-03T01:36:57;102622.53;;;6.46;61.61
56400;BME280;42298;53.638;9.876;2023-05-03T01:39:26;102626.56;;;6.55;61.12
56400;BME280;42298;53.638;9.876;2023-05-03T01:41:54;102638.97;;;6.69;61.57
56400;BME280;42298;53.638;9.876;2023-05-03T01:44:21;102629.34;;;6.78;61.34
56400;BME280;42298;53.638;9.876;2023-05-03T01:46:47;102616.22;;;6.80;60.79
56400;BME280;42298;53.638;9.876;2023-05-03T01:49:13;102631.81;;;6.91;60.39
56400;BME280;42298;53.638;9.876;2023-05-03T01:51:39;102627.41;;;6.90;61.53
56400;BME280;42298;53.638;9.876;2023-05-03T01:54:04;102640.97;;;7.08;61.58
56400;BME280;42298;53.638;9.876;2023-05-03T01:56:32;102646.66;;;7.18;61.83
56400;BME280;42298;53.638;9.876;2023-05-03T01:58:58;102629.16;;;7.19;61.46
56400;BME280;42298;53.638;9.876;2023-05-03T02:01:23;102643.78;;;7.24;60.88
56400;BME280;42298;53.638;9.876;2023-05-03T02:03:49;102642.72;;;7.25;61.17
56400;BME280;42298;53.638;9.876;2023-05-03T02:06:14;102640.78;;;7.26;61.99
56400;BME280;42298;53.638;9.876;2023-05-03T02:08:39;102644.03;;;7.23;61.19
56400;BME280;42298;53.638;9.876;2023-05-03T02:11:05;102640.09;;;7.19;60.93
56400;BME280;42298;53.638;9.876;2023-05-03T02:13:30;102639.75;;;7.27;61.04
56400;BME280;42298;53.638;9.876;2023-05-03T02:15:55;102630.31;;;7.34;62.59
56400;BME280;42298;53.638;9.876;2023-05-03T02:18:21;102652.56;;;7.49;61.75
56400;BME280;42298;53.638;9.876;2023-05-03T02:20:46;102646.84;;;7.51;61.25
56400;BME280;42298;53.638;9.876;2023-05-03T02:23:12;102658.03;;;7.49;60.41
56400;BME280;42298;53.638;9.876;2023-05-03T02:25:38;102653.28;;;7.45;60.60
56400;BME280;42298;53.638;9.876;2023-05-03T02:28:03;102660.78;;;7.49;61.39
56400;BME280;42298;53.638;9.876;2023-05-03T02:30:29;102655.91;;;7.40;62.48
56400;BME280;42298;53.638;9.876;2023-05-03T02:32:54;102653.06;;;7.35;63.35
56400;BME280;42298;53.638;9.876;2023-05-03T02:35:20;102655.22;;;7.33;62.98
56400;BME280;42298;53.638;9.876;2023-05-03T02:37:45;102659.84;;;7.32;63.25
56400;BME280;42298;53.638;9.876;2023-05-03T02:40:10;102667.97;;;7.27;63.84
56400;BME280;42298;53.638;9.876;2023-05-03T02:42:36;102652.00;;;7.24;62.95
56400;BME280;42298;53.638;9.876;2023-05-03T02:45:01;102656.91;;;7.22;63.85
56400;BME280;42298;53.638;9.876;2023-05-03T02:47:27;102668.44;;;7.36;63.50
56400;BME280;42298;53.638;9.876;2023-05-03T02:49:52;102665.19;;;7.50;62.40
56400;BME280;42298;53.638;9.876;2023-05-03T02:52:18;102670.06;;;7.60;62.54
56400;BME280;42298;53.638;9.876;2023-05-03T02:54:43;102665.97;;;7.62;61.59
56400;BME280;42298;53.638;9.876;2023-05-03T02:57:10;102640.94;;;7.59;62.15
56400;BME280;42298;53.638;9.876;2023-05-03T02:59:36;102665.50;;;7.65;62.44
56400;BME280;42298;53.638;9.876;2023-05-03T03:02:01;102662.50;;;7.67;62.89
56400;BME280;42298;53.638;9.876;2023-05-03T03:04:26;102657.50;;;7.64;62.95
56400;BME280;42298;53.638;9.876;2023-05-03T03:06:52;102662.50;;;7.67;64.26
56400;BME280;42298;53.638;9.876;2023-05-03T03:09:18;102653.44;;;7.66;63.52
56400;BME280;42298;53.638;9.876;2023-05-03T03:11:43;102663.69;;;7.71;64.67
56400;BME280;42298;53.638;9.876;2023-05-03T03:14:09;102655.13;;;7.67;65.07
56400;BME280;42298;53.638;9.876;2023-05-03T03:16:34;102647.13;;;7.66;63.00
56400;BME280;42298;53.638;9.876;2023-05-03T03:19:00;102665.78;;;7.80;62.44
56400;BME280;42298;53.638;9.876;2023-05-03T03:21:25;102644.59;;;7.76;62.94
56400;BME280;42298;53.638;9.876;2023-05-03T03:23:53;102668.97;;;7.89;63.00
56400;BME280;42298;53.638;9.876;2023-05-03T03:26:18;102660.06;;;7.82;64.14
56400;BME280;42298;53.638;9.876;2023-05-03T03:28:45;102664.75;;;7.98;64.11
56400;BME280;42298;53.638;9.876;2023-05-03T03:31:10;102670.34;;;8.03;63.77
56400;BME280;42298;53.638;9.876;2023-05-03T03:33:36;102659.63;;;8.02;64.25
56400;BME280;42298;53.638;9.876;2023-05-03T03:36:01;102659.88;;;8.00;64.36
56400;BME280;42298;53.638;9.876;2023-05-03T03:38:29;102656.13;;;8.06;63.17
56400;BME280;42298;53.638;9.876;2023-05-03T03:40:55;102657.53;;;8.09;62.70
56400;BME280;42298;53.638;9.876;2023-05-03T03:43:20;102658.38;;;8.09;62.55
56400;BME280;42298;53.638;9.876;2023-05-03T03:45:46;102658.88;;;8.06;62.65
56400;BME280;42298;53.638;9.876;2023-05-03T03:48:12;102657.78;;;8.07;61.86
56400;BME280;42298;53.638;9.876;2023-05-03T03:50:37;102659.13;;;8.05;61.95
56400;BME280;42298;53.638;9.876;2023-05-03T03:53:03;102656.75;;;8.08;62.65
56400;BME280;42298;53.638;9.876;2023-05-03T03:55:28;102662.88;;;8.15;62.50
56400;BME280;42298;53.638;9.876;2023-05-03T03:57:54;102659.56;;;8.13;62.53
56400;BME280;42298;53.638;9.876;2023-05-03T04:00:19;102649.16;;;8.15;62.84
56400;BME280;42298;53.638;9.876;2023-05-03T04:02:45;102655.09;;;8.24;62.99
56400;BME280;42298;53.638;9.876;2023-05-03T04:05:10;102658.75;;;8.29;62.44
56400;BME280;42298;53.638;9.876;2023-05-03T04:07:36;102661.72;;;8.39;62.47
56400;BME280;42298;53.638;9.876;2023-05-03T04:10:01;102657.53;;;8.37;62.11
56400;BME280;42298;53.638;9.876;2023-05-03T04:12:26;102655.13;;;8.40;63.32
56400;BME280;42298;53.638;9.876;2023-05-03T04:14:52;102669.44;;;8.42;64.13
56400;BME280;42298;53.638;9.876;2023-05-03T04:17:19;102671.09;;;8.43;64.45
56400;BME280;42298;53.638;9.876;2023-05-03T04:19:44;102656.03;;;8.46;63.09
56400;BME280;42298;53.638;9.876;2023-05-03T04:22:10;102659.03;;;8.61;63.50
56400;BME280;42298;53.638;9.876;2023-05-03T04:24:36;102658.22;;;8.60;63.10
56400;BME280;42298;53.638;9.876;2023-05-03T04:27:04;102657.72;;;8.63;63.58
56400;BME280;42298;53.638;9.876;2023-05-03T04:29:29;102672.34;;;8.69;62.73
56400;BME280;42298;53.638;9.876;2023-05-03T04:31:55;102662.22;;;8.69;63.42
56400;BME280;42298;53.638;9.876;2023-05-03T04:34:22;102664.72;;;8.71;63.80
56400;BME280;42298;53.638;9.876;2023-05-03T04:36:47;102672.75;;;8.77;63.67
56400;BME280;42298;53.638;9.876;2023-05-03T04:39:13;102675.19;;;8.90;63.22
56400;BME280;42298;53.638;9.876;2023-05-03T04:41:39;102670.75;;;8.89;63.12
56400;BME280;42298;53.638;9.876;2023-05-03T04:44:06;102679.16;;;8.99;62.93
56400;BME280;42298;53.638;9.876;2023-05-03T04:46:31;102686.97;;;9.07;62.38
56400;BME280;42298;53.638;9.876;2023-05-03T04:48:56;102684.38;;;9.17;62.86
56400;BME280;42298;53.638;9.876;2023-05-03T04:51:22;102690.44;;;9.19;62.48
56400;BME280;42298;53.638;9.876;2023-05-03T04:53:48;102688.28;;;9.21;61.95
56400;BME280;42298;53.638;9.876;2023-05-03T04:56:14;102675.13;;;9.23;61.85
56400;BME280;42298;53.638;9.876;2023-05-03T04:58:39;102684.06;;;9.35;62.00
56400;BME280;42298;53.638;9.876;2023-05-03T05:01:04;102697.63;;;9.42;62.15
56400;BME280;42298;53.638;9.876;2023-05-03T05:03:31;102696.53;;;9.43;63.10
56400;BME280;42298;53.638;9.876;2023-05-03T05:05:56;102686.47;;;9.48;62.86
56400;BME280;42298;53.638;9.876;2023-05-03T05:08:21;102711.16;;;9.65;63.02
56400;BME280;42298;53.638;9.876;2023-05-03T05:10:47;102704.88;;;9.69;62.54
56400;BME280;42298;53.638;9.876;2023-05-03T05:13:13;102708.78;;;9.73;63.11
56400;BME280;42298;53.638;9.876;2023-05-03T05:15:38;102707.06;;;9.89;62.84
56400;BME280;42298;53.638;9.876;2023-05-03T05:18:04;102708.28;;;10.03;62.35
56400;BME280;42298;53.638;9.876;2023-05-03T05:20:30;102707.16;;;10.21;61.73
56400;BME280;42298;53.638;9.876;2023-05-03T05:22:56;102710.09;;;10.41;62.11
56400;BME280;42298;53.638;9.876;2023-05-03T05:25:21;102692.53;;;10.47;60.15
56400;BME280;42298;53.638;9.876;2023-05-03T05:27:47;102709.00;;;10.73;60.39
56400;BME280;42298;53.638;9.876;2023-05-03T05:30:12;102705.03;;;10.91;60.04
56400;BME280;42298;53.638;9.876;2023-05-03T05:32:38;102717.31;;;11.10;59.60
56400;BME280;42298;53.638;9.876;2023-05-03T05:35:03;102716.56;;;11.24;60.41
56400;BME280;42298;53.638;9.876;2023-05-03T05:37:29;102716.66;;;11.39;60.85
56400;BME280;42298;53.638;9.876;2023-05-03T05:39:54;102711.44;;;11.48;59.71
56400;BME280;42298;53.638;9.876;2023-05-03T05:42:20;102720.34;;;11.60;59.42
56400;BME280;42298;53.638;9.876;2023-05-03T05:44:45;102729.28;;;11.72;59.49
56400;BME280;42298;53.638;9.876;2023-05-03T05:47:10;102739.84;;;11.85;59.91
56400;BME280;42298;53.638;9.876;2023-05-03T05:49:36;102722.19;;;11.96;58.66
56400;BME280;42298;53.638;9.876;2023-05-03T05:52:02;102726.41;;;12.14;58.11
56400;BME280;42298;53.638;9.876;2023-05-03T05:54:27;102726.72;;;12.27;57.34
56400;BME280;42298;53.638;9.876;2023-05-03T05:56:52;102739.19;;;12.45;55.96
56400;BME280;42298;53.638;9.876;2023-05-03T05:59:18;102737.25;;;12.60;55.21
56400;BME280;42298;53.638;9.876;2023-05-03T06:01:45;102732.84;;;12.84;54.18
56400;BME280;42298;53.638;9.876;2023-05-03T06:04:11;102729.53;;;13.22;53.92
56400;BME280;42298;53.638;9.876;2023-05-03T06:06:36;102732.81;;;13.44;52.28
56400;BME280;42298;53.638;9.876;2023-05-03T06:09:02;102736.66;;;13.59;52.61
56400;BME280;42298;53.638;9.876;2023-05-03T06:11:27;102739.72;;;13.52;52.38
56400;BME280;42298;53.638;9.876;2023-05-03T06:13:54;102744.28;;;13.92;51.00
56400;BME280;42298;53.638;9.876;2023-05-03T06:16:22;102745.44;;;14.39;51.23
56400;BME280;42298;53.638;9.876;2023-05-03T06:18:48;102752.72;;;14.74;48.90
56400;BME280;42298;53.638;9.876;2023-05-03T06:21:14;102749.00;;;15.17;48.51
56400;BME280;42298;53.638;9.876;2023-05-03T06:23:40;102752.31;;;15.48;47.39
56400;BME280;42298;53.638;9.876;2023-05-03T06:26:06;102753.16;;;15.72;46.34
56400;BME280;42298;53.638;9.876;2023-05-03T06:28:31;102746.31;;;15.88;45.66
56400;BME280;42298;53.638;9.876;2023-05-03T06:30:56;102751.50;;;15.94;45.67
56400;BME280;42298;53.638;9.876;2023-05-03T06:33:22;102752.69;;;16.12;45.03
56400;BME280;42298;53.638;9.876;2023-05-03T06:35:47;102753.41;;;15.75;43.99
56400;BME280;42298;53.638;9.876;2023-05-03T06:38:14;102756.59;;;15.35;45.07
56400;BME280;42298;53.638;9.876;2023-05-03T06:40:40;102751.34;;;15.33;45.38
56400;BME280;42298;53.638;9.876;2023-05-03T06:43:08;102760.16;;;15.69;45.18
56400;BME280;42298;53.638;9.876;2023-05-03T06:45:34;102755.06;;;15.76;44.01
56400;BME280;42298;53.638;9.876;2023-05-03T06:47:59;102750.19;;;15.87;42.50
56400;BME280;42298;53.638;9.876;2023-05-03T06:50:25;102756.72;;;15.77;43.07
56400;BME280;42298;53.638;9.876;2023-05-03T06:52:53;102756.06;;;15.62;44.18
56400;BME280;42298;53.638;9.876;2023-05-03T06:55:18;102753.41;;;15.75;43.41
56400;BME280;42298;53.638;9.876;2023-05-03T06:57:44;102748.44;;;15.72;42.88
56400;BME280;42298;53.638;9.876;2023-05-03T07:00:12;102742.25;;;15.80;43.22
56400;BME280;42298;53.638;9.876;2023-05-03T07:02:38;102760.44;;;16.33;42.57
56400;BME280;42298;53.638;9.876;2023-05-03T07:05:04;102752.16;;;16.84;40.90
56400;BME280;42298;53.638;9.876;2023-05-03T07:07:29;102750.28;;;17.30;40.88
56400;BME280;42298;53.638;9.876;2023-05-03T07:09:56;102742.59;;;17.95;38.09
56400;BME280;42298;53.638;9.876;2023-05-03T07:12:23;102757.28;;;17.87;37.69
56400;BME280;42298;53.638;9.876;2023-05-03T07:14:52;102757.44;;;17.17;38.65
56400;BME280;42298;53.638;9.876;2023-05-03T07:17:17;102768.19;;;16.73;39.62
56400;BME280;42298;53.638;9.876;2023-05-03T07:19:42;102766.63;;;16.67;39.92
56400;BME280;42298;53.638;9.876;2023-05-03T07:22:10;102757.53;;;16.62;39.91
56400;BME280;42298;53.638;9.876;2023-05-03T07:24:35;102763.16;;;16.75;39.33
56400;BME280;42298;53.638;9.876;2023-05-03T07:27:02;102760.84;;;17.14;39.10
56400;BME280;42298;53.638;9.876;2023-05-03T07:29:27;102763.44;;;17.57;38.18
56400;BME280;42298;53.638;9.876;2023-05-03T07:31:53;102764.69;;;17.51;36.75
56400;BME280;42298;53.638;9.876;2023-05-03T07:34:20;102761.53;;;17.39;36.94
56400;BME280;42298;53.638;9.876;2023-05-03T07:36:45;102763.31;;;17.16;37.18
56400;BME280;42298;53.638;9.876;2023-05-03T07:39:11;102757.28;;;16.95;37.38
56400;BME280;42298;53.638;9.876;2023-05-03T07:41:36;102762.56;;;16.41;37.91
56400;BME280;42298;53.638;9.876;2023-05-03T07:44:02;102759.50;;;16.01;38.12
56400;BME280;42298;53.638;9.876;2023-05-03T07:46:27;102759.03;;;15.94;38.68
56400;BME280;42298;53.638;9.876;2023-05-03T07:48:58;102748.84;;;15.84;38.90
56400;BME280;42298;53.638;9.876;2023-05-03T07:51:24;102746.59;;;15.63;38.89
56400;BME280;42298;53.638;9.876;2023-05-03T07:53:50;102752.28;;;15.76;39.13
56400;BME280;42298;53.638;9.876;2023-05-03T07:56:16;102762.88;;;15.98;39.85
56400;BME280;42298;53.638;9.876;2023-05-03T07:58:41;102747.81;;;15.99;39.02
56400;BME280;42298;53.638;9.876;2023-05-03T08:01:06;102755.06;;;16.18;38.94
56400;BME280;42298;53.638;9.876;2023-05-03T08:03:32;102763.22;;;16.33;39.68
56400;BME280;42298;53.638;9.876;2023-05-03T08:05:57;102751.56;;;16.31;40.02
56400;BME280;42298;53.638;9.876;2023-05-03T08:08:24;102756.44;;;16.39;40.28
56400;BME280;42298;53.638;9.876;2023-05-03T08:10:51;102765.78;;;16.30;39.83
56400;BME280;42298;53.638;9.876;2023-05-03T08:13:17;102764.56;;;16.17;40.17
56400;BME280;42298;53.638;9.876;2023-05-03T08:15:47;102765.19;;;16.09;40.06
56400;BME280;42298;53.638;9.876;2023-05-03T08:18:12;102768.19;;;15.94;39.56
56400;BME280;42298;53.638;9.876;2023-05-03T08:20:37;102757.84;;;16.00;39.60
56400;BME280;42298;53.638;9.876;2023-05-03T08:23:03;102759.19;;;16.02;39.36
56400;BME280;42298;53.638;9.876;2023-05-03T08:25:29;102760.84;;;16.03;39.68
56400;BME280;42298;53.638;9.876;2023-05-03T08:27:54;102759.28;;;16.16;40.07
56400;BME280;42298;53.638;9.876;2023-05-03T08:30:20;102770.00;;;16.83;38.88
56400;BME280;42298;53.638;9.876;2023-05-03T08:32:49;102781.09;;;17.34;37.06
56400;BME280;42298;53.638;9.876;2023-05-03T08:35:15;102772.44;;;17.54;36.08
56400;BME280;42298;53.638;9.876;2023-05-03T08:37:42;102772.22;;;18.18;36.21
56400;BME280;42298;53.638;9.876;2023-05-03T08:40:08;102768.56;;;18.31;35.37
56400;BME280;42298;53.638;9.876;2023-05-03T08:42:43;102756.94;;;18.29;35.47
56400;BME280;42298;53.638;9.876;2023-05-03T08:45:14;102768.09;;;18.15;34.62
56400;BME280;42298;53.638;9.876;2023-05-03T08:47:41;102769.03;;;17.84;35.31
56400;BME280;42298;53.638;9.876;2023-05-03T08:50:09;102778.19;;;17.57;35.82
56400;BME280;42298;53.638;9.876;2023-05-03T08:52:36;102768.56;;;17.36;36.29
56400;BME280;42298;53.638;9.876;2023-05-03T08:55:03;102767.81;;;16.98;35.67
56400;BME280;42298;53.638;9.876;2023-05-03T08:57:29;102778.41;;;17.15;36.50
56400;BME280;42298;53.638;9.876;2023-05-03T08:59:55;102775.13;;;17.27;36.24
56400;BME280;42298;53.638;9.876;2023-05-03T09:02:26;102772.88;;;17.29;36.27
56400;BME280;42298;53.638;9.876;2023-05-03T09:04:53;102780.72;;;17.40;36.01
56400;BME280;42298;53.638;9.876;2023-05-03T09:07:18;102782.44;;;17.68;35.67
56400;BME280;42298;53.638;9.876;2023-05-03T09:09:46;102770.06;;;17.88;35.90
56400;BME280;42298;53.638;9.876;2023-05-03T09:12:31;102776.88;;;17.95;35.43
56400;BME280;42298;53.638;9.876;2023-05-03T09:14:58;102798.25;;;18.27;34.45
56400;BME280;42298;53.638;9.876;2023-05-03T09:17:23;102782.88;;;18.65;32.72
56400;BME280;42298;53.638;9.876;2023-05-03T09:19:51;102791.00;;;18.88;31.68
56400;BME280;42298;53.638;9.876;2023-05-03T09:22:17;102766.88;;;18.70;31.67
56400;BME280;42298;53.638;9.876;2023-05-03T09:24:56;102772.94;;;18.72;33.09
56400;BME280;42298;53.638;9.876;2023-05-03T09:27:23;102778.84;;;18.71;33.82
56400;BME280;42298;53.638;9.876;2023-05-03T09:29:49;102786.13;;;18.58;34.17
56400;BME280;42298;53.638;9.876;2023-05-03T09:32:15;102784.38;;;18.35;33.76
56400;BME280;42298;53.638;9.876;2023-05-03T09:34:41;102787.63;;;18.29;34.59
56400;BME280;42298;53.638;9.876;2023-05-03T09:37:10;102793.84;;;18.39;34.40
56400;BME280;42298;53.638;9.876;2023-05-03T09:39:40;102783.34;;;18.58;32.48
56400;BME280;42298;53.638;9.876;2023-05-03T09:42:15;102777.50;;;18.68;32.19
56400;BME280;42298;53.638;9.876;2023-05-03T09:44:46;102770.88;;;18.42;31.95
56400;BME280;42298;53.638;9.876;2023-05-03T09:47:18;102773.56;;;17.93;32.86
56400;BME280;42298;53.638;9.876;2023-05-03T09:49:44;102783.91;;;18.06;34.70
56400;BME280;42298;53.638;9.876;2023-05-03T09:52:11;102779.34;;;18.10;33.51
56400;BME280;42298;53.638;9.876;2023-05-03T09:54:36;102770.06;;;18.01;33.39
56400;BME280;42298;53.638;9.876;2023-05-03T09:57:03;102775.34;;;17.89;34.86
56400;BME280;42298;53.638;9.876;2023-05-03T09:59:32;102779.75;;;18.04;34.20
56400;BME280;42298;53.638;9.876;2023-05-03T10:01:59;102780.59;;;18.04;34.36
56400;BME280;42298;53.638;9.876;2023-05-03T10:04:27;102780.91;;;18.03;34.91
56400;BME280;42298;53.638;9.876;2023-05-03T10:07:03;102771.91;;;18.06;34.70
56400;BME280;42298;53.638;9.876;2023-05-03T10:09:44;102776.56;;;17.97;34.91
56400;BME280;42298;53.638;9.876;2023-05-03T10:12:10;102780.50;;;17.96;35.18
56400;BME280;42298;53.638;9.876;2023-05-03T10:14:39;102773.69;;;18.02;35.18
56400;BME280;42298;53.638;9.876;2023-05-03T10:17:09;102772.63;;;17.98;34.27
56400;BME280;42298;53.638;9.876;2023-05-03T10:20:00;102772.53;;;18.03;34.65
56400;BME280;42298;53.638;9.876;2023-05-03T10:22:31;102764.88;;;17.54;34.81
56400;BME280;42298;53.638;9.876;2023-05-03T10:27:22;102773.44;;;17.44;35.51
56400;BME280;42298;53.638;9.876;2023-05-03T10:29:50;102769.63;;;17.54;35.39
56400;BME280;42298;53.638;9.876;2023-05-03T10:32:35;102759.53;;;17.98;34.75
56400;BME280;42298;53.638;9.876;2023-05-03T10:35:09;102756.63;;;18.44;32.94
56400;BME280;42298;53.638;9.876;2023-05-03T10:37:39;102755.44;;;18.58;32.67
56400;BME280;42298;53.638;9.876;2023-05-03T10:40:08;102746.47;;;18.48;32.86
56400;BME280;42298;53.638;9.876;2023-05-03T10:42:35;102740.88;;;18.48;32.61
56400;BME280;42298;53.638;9.876;2023-05-03T10:45:01;102740.63;;;18.58;32.77
56400;BME280;42298;53.638;9.876;2023-05-03T10:47:29;102749.81;;;18.72;32.37
56400;BME280;42298;53.638;9.876;2023-05-03T10:55:15;102738.22;;;19.62;32.06
56400;BME280;42298;53.638;9.876;2023-05-03T10:57:43;102740.16;;;20.00;32.54
56400;BME280;42298;53.638;9.876;2023-05-03T11:05:30;102743.78;;;19.01;33.09
56400;BME280;42298;53.638;9.876;2023-05-03T11:08:15;102746.13;;;19.29;33.16
56400;BME280;42298;53.638;9.876;2023-05-03T11:10:44;102748.94;;;19.29;32.03
56400;BME280;42298;53.638;9.876;2023-05-03T11:13:10;102754.94;;;18.43;33.27
56400;BME280;42298;53.638;9.876;2023-05-03T11:15:42;102748.28;;;18.17;34.29
56400;BME280;42298;53.638;9.876;2023-05-03T11:18:08;102749.91;;;18.04;33.83
56400;BME280;42298;53.638;9.876;2023-05-03T11:20:36;102746.94;;;17.74;33.89
56400;BME280;42298;53.638;9.876;2023-05-03T11:23:03;102741.03;;;17.75;34.15
56400;BME280;42298;53.638;9.876;2023-05-03T11:25:29;102741.34;;;18.01;33.31
56400;BME280;42298;53.638;9.876;2023-05-03T11:27:54;102741.63;;;18.26;34.25
56400;BME280;42298;53.638;9.876;2023-05-03T11:30:19;102740.19;;;18.42;33.16
56400;BME280;42298;53.638;9.876;2023-05-03T11:32:47;102747.94;;;18.67;32.69
56400;BME280;42298;53.638;9.876;2023-05-03T11:35:14;102732.78;;;18.82;33.25
56400;BME280;42298;53.638;9.876;2023-05-03T11:37:40;102728.22;;;19.30;33.50
56400;BME280;42298;53.638;9.876;2023-05-03T11:40:06;102736.84;;;19.90;32.66
56400;BME280;42298;53.638;9.876;2023-05-03T11:42:33;102733.94;;;20.03;31.88
56400;BME280;42298;53.638;9.876;2023-05-03T11:44:59;102738.31;;;20.43;32.31
56400;BME280;42298;53.638;9.876;2023-05-03T11:47:26;102730.72;;;20.87;31.66
56400;BME280;42298;53.638;9.876;2023-05-03T11:49:52;102736.66;;;20.94;31.04
56400;BME280;42298;53.638;9.876;2023-05-03T11:52:26;102731.72;;;20.65;31.06
56400;BME280;42298;53.638;9.876;2023-05-03T11:54:52;102738.31;;;20.43;31.59
56400;BME280;42298;53.638;9.876;2023-05-03T11:57:19;102738.94;;;20.23;31.16
56400;BME280;42298;53.638;9.876;2023-05-03T11:59:46;102730.47;;;19.50;31.94
56400;BME280;42298;53.638;9.876;2023-05-03T12:02:13;102721.78;;;19.08;32.60
56400;BME280;42298;53.638;9.876;2023-05-03T12:04:42;102730.25;;;18.94;32.81
56400;BME280;42298;53.638;9.876;2023-05-03T12:07:09;102732.78;;;18.82;33.59
56400;BME280;42298;53.638;9.876;2023-05-03T12:09:35;102718.31;;;18.58;33.43
56400;BME280;42298;53.638;9.876;2023-05-03T12:12:01;102713.34;;;18.55;33.95
56400;BME280;42298;53.638;9.876;2023-05-03T12:14:28;102734.00;;;18.67;34.22
56400;BME280;42298;53.638;9.876;2023-05-03T12:20:20;102727.91;;;18.16;34.50
56400;BME280;42298;53.638;9.876;2023-05-03T12:22:54;102727.56;;;18.31;35.02
56400;BME280;42298;53.638;9.876;2023-05-03T12:25:21;102717.31;;;18.54;35.75
56400;BME280;42298;53.638;9.876;2023-05-03T12:27:47;102719.66;;;18.82;34.71
56400;BME280;42298;53.638;9.876;2023-05-03T12:30:13;102719.84;;;18.86;33.40
56400;BME280;42298;53.638;9.876;2023-05-03T12:32:38;102713.88;;;18.79;34.42
56400;BME280;42298;53.638;9.876;2023-05-03T12:35:06;102715.78;;;18.92;33.28
56400;BME280;42298;53.638;9.876;2023-05-03T12:37:33;102713.59;;;18.89;33.33
56400;BME280;42298;53.638;9.876;2023-05-03T12:40:05;102714.13;;;18.69;33.23
56400;BME280;42298;53.638;9.876;2023-05-03T12:42:31;102707.09;;;18.49;33.74
56400;BME280;42298;53.638;9.876;2023-05-03T12:44:57;102701.81;;;18.34;34.39
56400;BME280;42298;53.638;9.876;2023-05-03T12:47:22;102696.41;;;18.51;35.18
56400;BME280;42298;53.638;9.876;2023-05-03T12:49:48;102696.03;;;18.31;33.69
56400;BME280;42298;53.638;9.876;2023-05-03T12:52:13;102688.53;;;18.18;33.64
56400;BME280;42298;53.638;9.876;2023-05-03T12:54:39;102703.75;;;17.98;33.91
56400;BME280;42298;53.638;9.876;2023-05-03T12:57:05;102698.44;;;17.75;34.41
56400;BME280;42298;53.638;9.876;2023-05-03T12:59:31;102692.03;;;17.61;34.67
56400;BME280;42298;53.638;9.876;2023-05-03T13:01:56;102687.47;;;17.78;36.59
56400;BME280;42298;53.638;9.876;2023-05-03T13:04:23;102691.94;;;18.28;34.82
56400;BME280;42298;53.638;9.876;2023-05-03T13:06:50;102694.38;;;18.43;35.45
56400;BME280;42298;53.638;9.876;2023-05-03T13:09:15;102685.19;;;18.65;35.24
56400;BME280;42298;53.638;9.876;2023-05-03T13:11:41;102686.00;;;18.87;34.79